• Join FlightAware (Why Join?)
  • Login
  • US Flag 
03:38PM EDT


 

Airport Tracker/Info


-or-


 

Live Flight TrackerFlight Track Log ✈ TAM3890 ✈ 07-May-2013 ✈ SBSV / SSA - SBRF / REC

Flight Track Log - Related Links

Times and Time Zones

All times are in EDT time to prevent confusion due to time zone crossing. See the TAM3890 flight status page for this flight to view local times or setup timezone preferences in your user account.

Time Position Orientation Groundspeed Altitude Reporting Facility
EDT Latitude Longitude Course Direction KTS MPH feet Rate Location/Type
06:00AM -9.5000 -36.1130 28° Northeast 435 501 33,000  Level FlightAware
06:01AM -9.4260 -36.0730 28° Northeast 435 501 33,000 -240 Level FlightAware
06:02AM -9.2970 -36.0000 29° Northeast 438 504 32,600 -720 Descending FlightAware
06:02AM -9.2360 -35.9680 27° Northeast 438 504 31,800 -2,460 Descending FlightAware
06:03AM -9.1240 -35.9050 29° Northeast 427 491 28,500 -2,880 Descending FlightAware
06:04AM -9.0520 -35.8650 29° Northeast 417 480 27,000 -1,080 Descending FlightAware
06:05AM -8.9830 -35.8280 28° Northeast 417 480 27,000 -2,040 Level FlightAware
06:06AM -8.9060 -35.7850 29° Northeast 392 451 24,000 -3,120 Descending FlightAware
06:06AM -8.8530 -35.7340 44° Northeast 385 443 22,600 -1,980 Descending FlightAware
06:07AM -8.8070 -35.6800 49° Northeast 380 437 21,400 -1,440 Descending FlightAware
06:08AM -8.7470 -35.6100 49° Northeast 375 432 20,400 -1,800 Descending FlightAware
06:09AM -8.6990 -35.5540 49° Northeast 365 420 18,600 -2,280 Descending FlightAware
06:09AM -8.6540 -35.5020 49° Northeast 361 415 17,400 -1,680 Descending FlightAware
06:10AM -8.6010 -35.4400 49° Northeast 355 409 16,100 -1,620 Descending FlightAware
06:11AM -8.5580 -35.3890 50° Northeast 353 406 15,000 -1,680 Descending FlightAware
06:11AM -8.5150 -35.3400 48° Northeast 351 404 13,900 -1,740 Descending FlightAware
06:12AM -8.4700 -35.2880 49° Northeast 346 398 12,700 -1,680 Descending FlightAware
06:13AM -8.4200 -35.2300 49° Northeast 339 390 11,400 -1,560 Descending FlightAware
06:14AM -8.3790 -35.1820 49° Northeast 331 381 10,400 -1,140 Descending FlightAware
06:14AM -8.3400 -35.1370 49° Northeast 302 348 9,900 -840 Descending FlightAware
06:14AM -8.3340 -35.1300 49° Northeast 298 343 9,700 -1,680 Descending FlightAware
06:15AM -8.3030 -35.0940 49° Northeast 295 339 8,800 -1,620 Descending FlightAware
06:15AM -8.2750 -35.0610 49° Northeast 291 335 8,000 -1,440 Descending FlightAware
06:16AM -8.2530 -35.0360 48° Northeast 287 330 7,400 -960 Descending FlightAware
06:17AM -8.2050 -34.9990 37° Northeast 263 303 6,900 -360 Descending FlightAware
06:17AM -8.1780 -35.0070 344° North 242 278 7,000 120 Climbing FlightAware
06:17AM -8.1690 -35.0100 342° North 239 275 7,000 -780 Level FlightAware
06:18AM -8.1360 -35.0210 342° North 238 274 6,500 -1,140 Descending FlightAware
06:18AM -8.1050 -35.0320 341° North 235 270 5,900 -1,320 Descending FlightAware
06:19AM -8.0800 -35.0410 340° North 238 274 5,300 -1,080 Descending FlightAware
06:19AM -8.0570 -35.0500 339° North 233 268 5,000 -660 Descending FlightAware
06:20AM -8.0230 -35.0610 342° North 214 246 4,700 -780 Descending FlightAware
06:20AM -7.9980 -35.0480 27° Northeast 189 217 4,200 -1,080 Descending FlightAware
06:20AM -7.9950 -35.0420 63° Northeast 189 217 4,000 -1,620 Descending FlightAware
06:21AM -7.9860 -35.0230 64° Northeast 188 216 3,400 -1,380 Descending FlightAware
06:21AM -7.9820 -34.9850 84° East 163 188 2,300 -1,080 Descending FlightAware
06:22AM -7.9920 -34.9700 124° Southeast 144 166 2,100 -480 Descending FlightAware
06:22AM -8.0010 -34.9650 151° Southeast 143 165 2,000 -300 Descending FlightAware
06:23AM -8.0180 -34.9590 161° South 142 163 1,900 -480 Descending FlightAware
06:23AM -8.0250 -34.9570 164° South 141 162 1,700 -840 Descending FlightAware
06:23AM -8.0450 -34.9500 161° South 137 158 1,300 -780 Descending FlightAware
06:24AM -8.0600 -34.9450 162° South 136 157 1,000 -600 Descending FlightAware
06:24AM -8.0800 -34.9390 163° South 136 157 700 -660 Descending FlightAware
06:25AM -8.1000 -34.9320 161° South 141 162 300 -840 Descending FlightAware
06:25AM -8.1150 -34.9270 162° South 140 161 -720 Descending FlightAware
06:25AM -8.1180 -34.9260 162° South 140 161  Level FlightAware
06:29AM -8.1268 -34.9230 244° Southwest  Level Estimated
06:30AM -8.1268 -34.9230 166° South  Level Estimated
06:31AM -8.1268 -34.9230 166° South  Level Estimated
06:32AM -8.1268 -34.9230 166° South  Level Estimated
06:33AM -8.1268 -34.9230 166° South  Level Estimated
06:34AM -8.1268 -34.9230 166° South  Level Estimated
06:35AM -8.1268 -34.9230 166° South  Level Estimated
06:36AM -8.1268 -34.9230 166° South  Level Estimated
06:37AM -8.1268 -34.9230 166° South  Level Estimated
06:38AM -8.1268 -34.9230 166° South  Level Estimated